Time;durP1;ratioP1;P1;durP2;ratioP2;P2;SDS_P1;SDS_P2;PMS_P1;PMS_P2;Temp;Humidity;BMP_temperature;BMP_pressure;BME280_temperature;BME280_humidity;BME280_pressure;Samples;Min_cycle;Max_cycle;Signal;HPM_P1;HPM_P2
2021/10/20 00:00:21;;;;;;;46.42;27.45;;;;;;;19.75;70.53;100172.59;4826725;28;119849;-73
2021/10/20 00:02:49;;;;;;;52.13;29.58;;;;;;;19.69;70.82;100150.44;4811823;29;120472;-73
2021/10/20 00:05:17;;;;;;;44.33;27.75;;;;;;;19.72;70.67;100163.28;4799340;29;122531;-73
2021/10/20 00:07:44;;;;;;;43.67;28.38;;;;;;;19.75;70.57;100158.69;4824463;28;120008;-73
2021/10/20 00:10:13;;;;;;;49.25;29.50;;;;;;;19.75;70.49;100147.56;4813550;29;121281;-73
2021/10/20 00:12:39;;;;;;;48.90;29.40;;;;;;;19.65;70.32;100127.72;4816003;28;120807;-74
2021/10/20 00:15:10;;;;;;;44.25;27.50;;;;;;;19.78;70.05;100157.63;4831992;29;120129;-74
2021/10/20 00:17:36;;;;;;;57.88;32.53;;;;;;;19.80;70.05;100152.28;4831732;28;119968;-74
2021/10/20 00:20:09;;;;;;;50.83;30.58;;;;;;;19.80;70.43;100155.81;4833048;28;120646;-74
2021/10/20 00:22:35;;;;;;;54.03;30.70;;;;;;;19.80;70.21;100153.03;4825730;28;119553;-73
2021/10/20 00:25:01;;;;;;;49.42;28.75;;;;;;;19.82;70.31;100147.69;4831042;28;126786;-74
2021/10/20 00:27:27;;;;;;;56.08;31.48;;;;;;;19.84;70.11;100141.59;4824708;28;119810;-73
2021/10/20 00:29:54;;;;;;;40.83;25.85;;;;;;;19.86;69.56;100125.13;4830776;28;119668;-74
2021/10/20 00:32:19;;;;;;;45.15;28.02;;;;;;;19.84;69.32;100124.91;4817258;28;120163;-74
2021/10/20 00:34:48;;;;;;;54.70;31.05;;;;;;;19.83;69.82;100126.94;4812015;29;119740;-74
2021/10/20 00:37:14;;;;;;;49.10;29.95;;;;;;;19.89;69.62;100126.88;4830590;28;120103;-73
2021/10/20 00:39:39;;;;;;;51.92;30.85;;;;;;;19.92;69.96;100128.59;4824902;28;119742;-74
2021/10/20 00:42:05;;;;;;;55.03;32.33;;;;;;;19.94;70.35;100126.03;4833740;28;120731;-74
2021/10/20 00:44:54;;;;;;;50.00;29.45;;;;;;;19.96;69.78;100129.03;4823030;28;119617;-74
2021/10/20 00:47:21;;;;;;;51.28;29.42;;;;;;;19.95;69.65;100124.75;4839996;28;119927;-73
2021/10/20 00:49:48;;;;;;;57.67;32.55;;;;;;;19.96;69.95;100117.16;4824946;28;120354;-73
2021/10/20 00:52:14;;;;;;;49.97;27.60;;;;;;;19.93;69.82;100116.19;4820076;28;120927;-74
2021/10/20 00:54:41;;;;;;;51.63;29.05;;;;;;;19.94;69.88;100112.13;4818928;28;121387;-73
2021/10/20 00:57:07;;;;;;;51.10;30.90;;;;;;;19.93;70.39;100091.13;4825801;28;120387;-73
2021/10/20 00:59:33;;;;;;;41.35;23.98;;;;;;;19.90;69.57;100097.78;4828735;28;119784;-73
2021/10/20 01:01:59;;;;;;;50.25;29.33;;;;;;;19.86;69.90;100098.06;4829766;28;119836;-73
2021/10/20 01:04:24;;;;;;;45.65;28.48;;;;;;;19.83;70.03;100095.56;4833842;28;119643;-73
2021/10/20 01:06:53;;;;;;;49.15;28.23;;;;;;;19.85;70.19;100096.56;4829225;28;120825;-74
2021/10/20 01:09:22;;;;;;;46.95;26.50;;;;;;;19.83;70.13;100093.53;4827331;28;120198;-73
2021/10/20 01:11:48;;;;;;;56.20;31.27;;;;;;;19.81;70.56;100087.75;4813363;28;120025;-74
2021/10/20 01:14:14;;;;;;;55.33;28.25;;;;;;;19.79;70.50;100076.41;4815689;28;124504;-73
2021/10/20 01:16:41;;;;;;;54.00;28.52;;;;;;;19.85;70.58;100081.88;4814831;29;121071;-74
2021/10/20 01:19:08;;;;;;;54.05;29.52;;;;;;;19.85;70.54;100079.09;4803447;29;120546;-74
2021/10/20 01:21:35;;;;;;;42.15;23.75;;;;;;;19.85;69.96;100070.75;4818719;28;120572;-73
2021/10/20 01:24:01;;;;;;;49.78;27.60;;;;;;;19.85;70.34;100059.63;4804586;28;120776;-74
2021/10/20 01:26:27;;;;;;;49.20;27.80;;;;;;;19.84;70.26;100066.47;4832736;28;120135;-73
2021/10/20 01:28:53;;;;;;;51.97;28.45;;;;;;;19.85;70.64;100056.84;4814072;29;120537;-74
2021/10/20 01:31:19;;;;;;;47.10;26.20;;;;;;;19.86;70.00;100055.56;4811363;29;121024;-73
2021/10/20 01:33:45;;;;;;;53.38;29.13;;;;;;;19.88;70.33;100053.03;4805518;29;120055;-73
2021/10/20 01:36:10;;;;;;;56.72;30.08;;;;;;;19.85;70.29;100043.69;4821199;28;119876;-73
2021/10/20 01:38:36;;;;;;;46.78;24.63;;;;;;;19.85;70.07;100029.75;4817273;28;122326;-73
2021/10/20 01:41:02;;;;;;;46.90;26.02;;;;;;;19.80;69.87;100016.69;4813127;28;120028;-74
2021/10/20 01:43:47;;;;;;;51.30;27.40;;;;;;;19.80;70.08;100013.91;4801431;29;119581;-74
2021/10/20 01:46:20;;;;;;;53.30;26.95;;;;;;;19.75;70.51;100002.88;4827898;28;122576;-73
2021/10/20 01:48:46;;;;;;;46.47;24.58;;;;;;;19.73;69.93;100011.00;4806990;29;120460;-73
2021/10/20 01:51:16;;;;;;;51.20;27.73;;;;;;;19.73;70.56;100006.19;4812086;29;120075;-73
2021/10/20 01:53:42;;;;;;;43.90;23.45;;;;;;;19.71;70.06;100010.78;4798338;28;119941;-73
2021/10/20 01:56:11;;;;;;;56.10;28.95;;;;;;;19.71;70.39;99996.88;4807241;28;121711;-73
2021/10/20 01:58:36;;;;;;;54.60;27.25;;;;;;;19.72;70.48;99987.25;4836897;28;120038;-73
2021/10/20 02:01:07;;;;;;;51.53;26.83;;;;;;;19.72;70.41;99988.00;4827402;28;120046;-73
2021/10/20 02:03:37;;;;;;;37.47;22.08;;;;;;;19.71;69.73;99985.75;4826390;28;119680;-73
2021/10/20 02:06:08;;;;;;;49.20;25.13;;;;;;;19.72;69.94;99984.47;4810982;29;120173;-72
2021/10/20 02:08:34;;;;;;;50.17;27.27;;;;;;;19.71;70.01;99980.19;4828249;28;119787;-73
2021/10/20 02:11:00;;;;;;;50.20;25.58;;;;;;;19.73;69.93;99974.84;4823182;28;121392;-73
2021/10/20 02:13:26;;;;;;;42.00;22.52;;;;;;;19.73;69.39;99978.38;4817483;29;121325;-73
2021/10/20 02:15:55;;;;;;;52.03;26.00;;;;;;;19.71;69.61;99969.06;4798675;29;121122;-74
2021/10/20 02:18:20;;;;;;;50.35;25.90;;;;;;;19.74;69.86;99971.53;4823742;28;120158;-73
2021/10/20 02:20:46;;;;;;;52.60;24.63;;;;;;;19.75;69.52;99961.13;4825306;28;120828;-73
2021/10/20 02:23:13;;;;;;;52.33;26.65;;;;;;;19.74;70.06;99943.69;4826008;29;119907;-73
2021/10/20 02:25:39;;;;;;;49.35;25.45;;;;;;;19.72;69.87;99945.50;4828729;28;120167;-74
2021/10/20 02:28:04;;;;;;;50.28;25.10;;;;;;;19.72;69.67;99943.47;4832169;28;119580;-73
2021/10/20 02:30:30;;;;;;;41.10;22.30;;;;;;;19.71;69.43;99941.97;4816191;29;120365;-73
2021/10/20 02:32:56;;;;;;;50.22;26.27;;;;;;;19.73;69.29;99927.53;4825303;28;120368;-74
2021/10/20 02:35:22;;;;;;;49.55;25.15;;;;;;;19.71;69.50;99908.59;4806223;29;120894;-73
2021/10/20 02:37:48;;;;;;;51.38;25.30;;;;;;;19.71;69.38;99944.75;4811975;29;120294;-73
2021/10/20 02:40:14;;;;;;;48.53;26.70;;;;;;;19.73;69.71;99931.06;4812528;29;119942;-73
2021/10/20 02:42:41;;;;;;;44.92;24.38;;;;;;;19.70;69.46;99918.22;4828542;28;122917;-73
2021/10/20 02:45:11;;;;;;;43.00;22.77;;;;;;;19.74;69.23;99918.66;4805022;29;120572;-74
2021/10/20 02:47:36;;;;;;;55.25;25.05;;;;;;;19.69;69.44;99910.41;4827133;28;120289;-73
2021/10/20 02:50:04;;;;;;;58.05;27.25;;;;;;;19.74;69.53;99918.66;4827501;28;120376;-73
2021/10/20 02:52:29;;;;;;;42.38;23.23;;;;;;;19.74;69.15;99909.56;4832376;28;119740;-74
2021/10/20 02:54:58;;;;;;;51.10;25.13;;;;;;;19.76;69.11;99904.97;4824529;29;120512;-74
2021/10/20 02:57:23;;;;;;;45.53;25.88;;;;;;;19.74;69.44;99901.97;4830392;28;119821;-73
2021/10/20 02:59:51;;;;;;;45.20;23.42;;;;;;;19.77;69.44;99925.94;4829930;28;120359;-73
2021/10/20 03:02:17;;;;;;;42.70;23.05;;;;;;;19.72;68.77;99910.09;4825857;28;120725;-74
2021/10/20 03:04:47;;;;;;;42.97;24.25;;;;;;;19.76;69.29;99895.84;4809044;28;120945;-73
2021/10/20 03:07:15;;;;;;;41.95;22.52;;;;;;;19.76;68.96;99885.47;4812200;29;119671;-73
2021/10/20 03:09:41;;;;;;;45.63;23.52;;;;;;;19.76;69.02;99887.50;4830476;29;119715;-74
2021/10/20 03:12:07;;;;;;;40.55;20.60;;;;;;;19.76;68.40;99895.84;4837313;28;119544;-73
2021/10/20 03:14:32;;;;;;;39.88;22.67;;;;;;;19.74;69.00;99888.06;4822339;29;120721;-73
2021/10/20 03:16:58;;;;;;;37.40;21.95;;;;;;;19.76;68.58;99877.13;4817298;28;120818;-74
2021/10/20 03:19:24;;;;;;;49.30;23.80;;;;;;;19.78;69.15;99882.16;4827068;28;119962;-73
2021/10/20 03:21:49;;;;;;;42.78;23.10;;;;;;;19.79;69.02;99866.97;4828906;29;119572;-73
2021/10/20 03:24:15;;;;;;;37.80;21.65;;;;;;;19.75;68.46;99874.88;4829247;28;120032;-74
2021/10/20 03:26:40;;;;;;;43.63;21.88;;;;;;;19.77;68.56;99858.41;4804456;29;120214;-73
2021/10/20 03:29:06;;;;;;;36.78;21.25;;;;;;;19.77;68.44;99866.75;4820564;28;120260;-74
2021/10/20 03:31:32;;;;;;;46.83;23.40;;;;;;;19.76;68.88;99860.44;4817959;28;120198;-74
2021/10/20 03:33:58;;;;;;;42.67;22.15;;;;;;;19.71;68.71;99846.63;4811249;29;120247;-73
2021/10/20 03:36:24;;;;;;;44.38;24.10;;;;;;;19.76;68.79;99854.88;4802330;29;120514;-73
2021/10/20 03:38:50;;;;;;;36.35;22.45;;;;;;;19.76;68.68;99840.97;4829595;28;119623;-73
2021/10/20 03:41:16;;;;;;;38.28;22.63;;;;;;;19.74;68.45;99837.22;4830737;28;119768;-74
2021/10/20 03:43:41;;;;;;;49.22;25.20;;;;;;;19.76;68.94;99845.78;4829781;28;120012;-73
2021/10/20 03:46:07;;;;;;;44.17;23.48;;;;;;;19.74;68.60;99845.56;4812461;28;120258;-73
2021/10/20 03:48:36;;;;;;;40.63;23.90;;;;;;;19.73;68.75;99832.94;4836151;28;120136;-73
2021/10/20 03:51:03;;;;;;;37.83;22.88;;;;;;;19.70;68.57;99831.97;4832367;28;119579;-73
2021/10/20 03:53:28;;;;;;;46.22;24.42;;;;;;;19.69;68.82;99826.94;4831017;28;119765;-73
2021/10/20 03:55:54;;;;;;;42.60;24.63;;;;;;;19.67;69.03;99810.78;4831939;28;120261;-74
2021/10/20 03:58:21;;;;;;;51.47;25.65;;;;;;;19.66;69.29;99800.94;4828926;28;120154;-74
2021/10/20 04:00:47;;;;;;;40.65;21.27;;;;;;;19.63;69.08;99813.88;4830062;28;120009;-74
2021/10/20 04:03:13;;;;;;;47.03;24.20;;;;;;;19.61;69.31;99805.31;4800428;29;122010;-74
2021/10/20 04:05:39;;;;;;;47.58;25.10;;;;;;;19.51;69.33;99798.66;4819921;28;119717;-73
2021/10/20 04:08:04;;;;;;;50.25;25.75;;;;;;;19.59;69.41;99802.31;4808227;29;120061;-73
2021/10/20 04:10:30;;;;;;;35.42;20.42;;;;;;;19.57;69.10;99799.31;4827716;28;120691;-73
2021/10/20 04:12:55;;;;;;;43.15;22.90;;;;;;;19.55;69.37;99795.59;4830010;28;119731;-74
2021/10/20 04:15:23;;;;;;;46.72;23.77;;;;;;;19.58;69.15;99780.59;4830283;28;119962;-73
2021/10/20 04:17:49;;;;;;;36.70;21.85;;;;;;;19.57;69.32;99785.41;4820471;28;120917;-73
2021/10/20 04:20:20;;;;;;;41.85;22.70;;;;;;;19.58;69.38;99789.69;4814351;29;120370;-74
2021/10/20 04:22:48;;;;;;;34.70;19.95;;;;;;;19.51;69.34;99784.75;4829087;28;119509;-73
2021/10/20 04:25:15;;;;;;;40.22;22.98;;;;;;;19.54;69.49;99799.66;4827427;28;120335;-74
2021/10/20 04:27:42;;;;;;;47.92;24.85;;;;;;;19.52;69.54;99777.91;4801448;28;121745;-73
2021/10/20 04:30:12;;;;;;;44.63;23.15;;;;;;;19.50;69.36;99771.38;4814714;28;124399;-73
2021/10/20 04:32:38;;;;;;;43.15;23.15;;;;;;;19.50;69.29;99772.13;4815893;29;120577;-73
2021/10/20 04:35:04;;;;;;;47.40;24.88;;;;;;;19.51;69.47;99759.72;4829842;28;119875;-73
2021/10/20 04:37:30;;;;;;;41.38;24.23;;;;;;;19.51;69.55;99761.75;4813691;29;122252;-73
2021/10/20 04:39:58;;;;;;;45.10;24.85;;;;;;;19.53;69.72;99753.63;4819581;29;120337;-73
2021/10/20 04:42:25;;;;;;;43.92;23.55;;;;;;;19.51;69.49;99756.94;4822202;28;119649;-74
2021/10/20 04:44:51;;;;;;;42.50;23.27;;;;;;;19.49;69.39;99756.72;4813244;28;121185;-73
2021/10/20 04:47:20;;;;;;;36.85;21.60;;;;;;;19.47;69.02;99747.41;4842121;28;120109;-73
2021/10/20 04:49:46;;;;;;;35.75;20.73;;;;;;;19.48;68.85;99746.13;4828544;28;121452;-73
2021/10/20 04:52:12;;;;;;;41.60;23.08;;;;;;;19.48;69.14;99755.22;4828482;28;120090;-73
2021/10/20 04:54:38;;;;;;;37.92;22.90;;;;;;;19.47;69.19;99739.84;4796403;28;119798;-73
2021/10/20 04:57:04;;;;;;;45.85;23.17;;;;;;;19.45;69.51;99747.97;4827431;28;120158;-73
2021/10/20 04:59:31;;;;;;;37.38;21.92;;;;;;;19.37;69.26;99724.84;4828651;28;119899;-73
2021/10/20 05:01:58;;;;;;;36.67;22.20;;;;;;;19.42;69.42;99728.81;4830578;28;120324;-73
2021/10/20 05:04:24;;;;;;;40.35;23.80;;;;;;;19.39;69.66;99721.53;4825127;28;119926;-73
2021/10/20 05:06:49;;;;;;;43.92;23.00;;;;;;;19.35;69.61;99704.41;4827339;28;119832;-73
2021/10/20 05:09:18;;;;;;;41.88;24.63;;;;;;;19.37;69.79;99708.16;4828567;28;119858;-73
2021/10/20 05:11:46;;;;;;;37.63;21.58;;;;;;;19.33;69.66;99711.25;4833956;28;119747;-73
2021/10/20 05:14:12;;;;;;;38.58;22.75;;;;;;;19.28;69.60;99703.78;4828334;28;120010;-74
2021/10/20 05:16:37;;;;;;;37.85;21.65;;;;;;;19.27;70.04;99687.63;4830170;28;120037;-73
2021/10/20 05:19:03;;;;;;;32.88;20.00;;;;;;;19.27;69.93;99690.41;4830278;29;119651;-73
2021/10/20 05:21:29;;;;;;;33.83;20.85;;;;;;;19.27;70.21;99696.72;4818352;28;120773;-73
2021/10/20 05:23:54;;;;;;;38.33;22.23;;;;;;;19.28;70.19;99694.69;4808479;29;119994;-74
2021/10/20 05:26:21;;;;;;;33.33;19.63;;;;;;;19.27;70.00;99673.72;4813209;28;119841;-73
2021/10/20 05:28:46;;;;;;;33.25;20.10;;;;;;;19.29;69.78;99660.78;4813465;29;120034;-74
2021/10/20 05:31:15;;;;;;;39.67;22.20;;;;;;;19.31;70.06;99671.38;4810364;29;119903;-73
2021/10/20 05:33:40;;;;;;;38.08;20.17;;;;;;;19.32;69.92;99661.75;4788775;29;121051;-74
2021/10/20 05:36:08;;;;;;;36.55;20.70;;;;;;;19.32;69.96;99661.75;4828299;28;120022;-73
2021/10/20 05:38:35;;;;;;;35.17;20.25;;;;;;;19.31;70.03;99655.44;4822103;29;119955;-73
2021/10/20 05:41:02;;;;;;;39.65;21.92;;;;;;;19.16;69.94;99626.69;4831993;28;119447;-73
2021/10/20 05:43:27;;;;;;;37.53;20.33;;;;;;;19.33;69.43;99661.22;4798660;29;126342;-73
2021/10/20 05:45:53;;;;;;;35.03;20.30;;;;;;;19.32;69.71;99650.63;4827717;28;119604;-73
2021/10/20 05:48:22;;;;;;;41.30;21.00;;;;;;;19.31;69.71;99652.66;4802621;29;121450;-73
2021/10/20 05:50:52;;;;;;;39.22;21.20;;;;;;;19.30;70.09;99642.09;4823830;28;120071;-74
2021/10/20 05:53:19;;;;;;;35.00;19.42;;;;;;;19.28;70.04;99633.53;4825959;28;120470;-73
2021/10/20 05:55:44;;;;;;;31.35;19.45;;;;;;;19.30;69.74;99647.63;4829897;29;120108;-73
2021/10/20 05:58:11;;;;;;;34.75;20.23;;;;;;;19.29;69.85;99641.34;4833654;28;119910;-74
2021/10/20 06:00:37;;;;;;;34.78;20.92;;;;;;;19.30;69.65;99633.75;4827976;28;119654;-73
2021/10/20 06:03:03;;;;;;;32.05;19.80;;;;;;;19.30;69.71;99617.06;4821072;29;120031;-74
2021/10/20 06:05:29;;;;;;;31.73;18.25;;;;;;;19.29;69.73;99630.22;4831291;28;120096;-73
2021/10/20 06:07:54;;;;;;;30.83;19.15;;;;;;;19.27;69.47;99624.44;4804307;29;122226;-74
2021/10/20 06:10:20;;;;;;;31.85;19.98;;;;;;;19.26;69.48;99616.63;4825682;28;119778;-74
2021/10/20 06:12:46;;;;;;;32.30;19.10;;;;;;;19.26;69.32;99630.53;4827407;28;120060;-73
2021/10/20 06:15:13;;;;;;;31.52;19.25;;;;;;;19.25;69.29;99615.88;4827940;28;118906;-73
2021/10/20 06:17:38;;;;;;;35.63;19.38;;;;;;;19.26;69.00;99597.19;4826824;28;119839;-73
2021/10/20 06:20:06;;;;;;;31.17;18.05;;;;;;;19.24;69.01;99602.53;4824433;28;122029;-73
2021/10/20 06:22:32;;;;;;;31.85;17.73;;;;;;;19.22;69.14;99589.16;4820607;28;120072;-73
2021/10/20 06:24:58;;;;;;;35.05;20.42;;;;;;;19.21;69.05;99573.03;4826596;29;119841;-74
2021/10/20 06:27:23;;;;;;;31.40;19.42;;;;;;;19.17;69.02;99559.47;4830372;28;120083;-74
2021/10/20 06:29:49;;;;;;;34.47;20.02;;;;;;;19.17;68.90;99567.06;4828514;28;122571;-73
2021/10/20 06:32:15;;;;;;;32.88;18.60;;;;;;;19.15;68.96;99564.03;4822963;28;119560;-73
2021/10/20 06:34:40;;;;;;;34.55;19.55;;;;;;;19.15;69.25;99573.13;4813311;28;121889;-74
2021/10/20 06:37:06;;;;;;;36.90;19.00;;;;;;;19.13;68.94;99561.78;4809822;29;119979;-73
2021/10/20 06:39:31;;;;;;;40.58;22.52;;;;;;;19.13;68.87;99556.25;4814997;28;120151;-74
2021/10/20 06:41:57;;;;;;;37.10;20.65;;;;;;;19.13;68.96;99549.94;4822509;28;121415;-73
2021/10/20 06:44:24;;;;;;;33.80;19.85;;;;;;;19.11;69.08;99564.38;4826404;28;120180;-74
2021/10/20 06:46:50;;;;;;;36.97;20.73;;;;;;;19.09;69.14;99552.28;4831758;28;119901;-73
2021/10/20 06:49:16;;;;;;;31.45;18.88;;;;;;;19.13;68.89;99541.59;4822236;29;119986;-73
2021/10/20 06:51:42;;;;;;;36.40;18.92;;;;;;;19.12;68.94;99528.97;4818634;28;119928;-74
2021/10/20 06:54:08;;;;;;;34.97;20.10;;;;;;;19.11;68.69;99508.03;4813456;28;121205;-73
2021/10/20 06:56:34;;;;;;;33.10;19.83;;;;;;;19.11;68.74;99502.47;4818934;28;119506;-74
2021/10/20 06:59:00;;;;;;;37.75;19.58;;;;;;;19.09;68.63;99516.16;4837407;28;119895;-74
2021/10/20 07:01:25;;;;;;;33.85;20.08;;;;;;;19.08;68.53;99525.78;4831215;28;120561;-73
2021/10/20 07:03:51;;;;;;;35.58;18.67;;;;;;;19.11;68.25;99531.00;4831226;28;119832;-73
2021/10/20 07:06:16;;;;;;;36.20;19.30;;;;;;;19.08;68.28;99523.00;4797251;29;123275;-73
2021/10/20 07:08:42;;;;;;;34.50;19.20;;;;;;;19.10;68.13;99523.22;4824397;28;122032;-74
2021/10/20 07:11:07;;;;;;;30.92;19.48;;;;;;;19.08;68.64;99509.84;4834498;28;120023;-74
2021/10/20 07:13:33;;;;;;;36.28;20.13;;;;;;;19.01;68.42;99511.28;4832350;28;120228;-73
2021/10/20 07:16:02;;;;;;;36.85;20.58;;;;;;;19.01;68.83;99516.81;4831108;29;120642;-74
2021/10/20 07:18:29;;;;;;;37.13;20.20;;;;;;;18.97;68.88;99512.88;4829598;28;119693;-74
2021/10/20 07:20:55;;;;;;;31.73;20.27;;;;;;;18.95;68.93;99504.34;4830174;28;119649;-74
2021/10/20 07:23:20;;;;;;;34.45;20.83;;;;;;;18.97;69.02;99515.66;4829632;28;119641;-73
2021/10/20 07:25:50;;;;;;;40.75;21.13;;;;;;;18.94;69.02;99505.63;4813004;28;120825;-73
2021/10/20 07:28:15;;;;;;;33.65;20.15;;;;;;;18.96;68.80;99509.34;4830916;28;119897;-73
2021/10/20 07:30:41;;;;;;;35.13;19.45;;;;;;;18.96;68.89;99506.56;4823652;29;119723;-74
2021/10/20 07:33:07;;;;;;;37.42;20.45;;;;;;;18.92;69.00;99503.34;4822621;28;120491;-73
2021/10/20 07:35:32;;;;;;;34.55;19.70;;;;;;;18.91;68.50;99501.88;4823418;28;120759;-73
2021/10/20 07:38:01;;;;;;;32.15;20.10;;;;;;;18.88;68.63;99508.50;4827089;28;120381;-73
2021/10/20 07:40:26;;;;;;;33.00;19.48;;;;;;;18.90;69.02;99505.94;4829111;28;120006;-73
2021/10/20 07:42:52;;;;;;;35.33;21.27;;;;;;;18.88;68.21;99485.53;4829009;28;120140;-73
2021/10/20 07:45:19;;;;;;;29.10;18.42;;;;;;;18.88;68.48;99491.06;4830354;28;119245;-73
2021/10/20 07:47:47;;;;;;;32.10;19.48;;;;;;;18.86;68.47;99486.06;4832168;28;119696;-73
2021/10/20 07:50:14;;;;;;;33.20;19.88;;;;;;;18.83;68.49;99489.91;4829308;28;121695;-73
2021/10/20 07:52:41;;;;;;;35.13;18.23;;;;;;;18.86;68.45;99480.50;4841137;28;119836;-73
2021/10/20 07:55:07;;;;;;;38.05;20.48;;;;;;;18.86;68.66;99483.28;4828033;28;119971;-73
2021/10/20 07:57:34;;;;;;;34.80;20.75;;;;;;;18.83;68.59;99473.25;4827092;28;119660;-73
2021/10/20 08:00:00;;;;;;;37.75;20.67;;;;;;;18.79;69.03;99466.53;4804422;29;121445;-73
2021/10/20 08:02:26;;;;;;;36.40;20.75;;;;;;;18.76;69.16;99451.69;4825724;28;120048;-74
2021/10/20 08:04:51;;;;;;;37.65;21.00;;;;;;;18.74;69.52;99465.38;4810152;29;120991;-73
2021/10/20 08:07:17;;;;;;;33.22;19.85;;;;;;;18.70;69.41;99449.03;4820506;28;120934;-74
2021/10/20 08:09:46;;;;;;;35.53;19.92;;;;;;;18.69;69.34;99449.53;4791104;28;119654;-73
2021/10/20 08:12:12;;;;;;;34.50;20.50;;;;;;;18.69;69.17;99453.09;4814694;29;121230;-73
2021/10/20 08:14:41;;;;;;;38.83;21.80;;;;;;;18.64;69.28;99447.63;4827239;28;119512;-73
2021/10/20 08:17:08;;;;;;;36.22;20.80;;;;;;;18.61;69.56;99454.22;4809590;29;120188;-73
2021/10/20 08:19:34;;;;;;;38.08;21.80;;;;;;;18.55;69.94;99436.94;4821739;28;120079;-73
2021/10/20 08:21:59;;;;;;;36.70;21.92;;;;;;;18.54;70.06;99435.44;4821487;28;120272;-73
2021/10/20 08:24:25;;;;;;;31.75;20.35;;;;;;;18.58;70.26;99441.41;4811539;28;119645;-73
2021/10/20 08:26:51;;;;;;;42.55;23.65;;;;;;;18.56;70.28;99438.44;4820815;28;121189;-74
2021/10/20 08:29:17;;;;;;;40.00;22.77;;;;;;;18.56;70.24;99425.28;4823048;28;120468;-73
2021/10/20 08:31:42;;;;;;;46.63;25.20;;;;;;;18.54;70.55;99424.34;4819645;28;120132;-73
2021/10/20 08:34:08;;;;;;;42.00;23.65;;;;;;;18.49;70.72;99414.09;4818302;28;119964;-73
2021/10/20 08:36:34;;;;;;;45.22;25.50;;;;;;;18.49;70.72;99406.53;4828669;28;120088;-73
2021/10/20 08:38:59;;;;;;;49.70;25.55;;;;;;;18.48;70.84;99401.50;4823479;28;119946;-73
2021/10/20 08:41:25;;;;;;;45.17;24.10;;;;;;;18.46;70.70;99392.97;4822446;28;120066;-73
2021/10/20 08:43:51;;;;;;;50.15;27.48;;;;;;;18.46;70.62;99395.75;4821660;28;120022;-73
2021/10/20 08:46:21;;;;;;;44.63;26.52;;;;;;;18.46;70.60;99392.97;4793411;28;120701;-73
2021/10/20 08:48:47;;;;;;;47.13;25.08;;;;;;;18.46;70.36;99387.41;4824701;28;120133;-73
2021/10/20 08:51:13;;;;;;;41.33;25.13;;;;;;;18.48;70.59;99387.63;4824023;29;120015;-73
2021/10/20 08:53:39;;;;;;;47.85;26.45;;;;;;;18.52;70.88;99382.47;4821692;28;119550;-73
2021/10/20 08:56:05;;;;;;;40.67;23.33;;;;;;;18.52;70.59;99374.16;4807936;29;119817;-73
2021/10/20 08:58:31;;;;;;;38.45;23.30;;;;;;;18.57;70.54;99373.28;4828374;28;120298;-73
2021/10/20 09:00:57;;;;;;;45.83;25.25;;;;;;;18.63;70.51;99365.59;4827473;28;120556;-73
2021/10/20 09:03:23;;;;;;;53.45;27.63;;;;;;;18.66;70.07;99365.28;4808999;28;119556;-74
2021/10/20 09:05:48;;;;;;;47.38;26.77;;;;;;;18.64;70.14;99356.72;4827107;28;120280;-80
2021/10/20 09:08:14;;;;;;;47.05;25.40;;;;;;;18.65;70.12;99352.66;4821205;28;121531;-74
2021/10/20 09:10:40;;;;;;;49.45;25.65;;;;;;;18.66;69.94;99358.97;4823972;28;121010;-74
2021/10/20 09:13:06;;;;;;;48.63;28.52;;;;;;;18.67;70.07;99366.75;4828107;28;120119;-73
2021/10/20 09:15:37;;;;;;;43.72;24.83;;;;;;;18.66;69.76;99354.16;4826849;28;120925;-74
2021/10/20 09:18:05;;;;;;;52.25;26.95;;;;;;;18.68;69.66;99357.16;4812515;28;122629;-75
2021/10/20 09:20:44;;;;;;;45.08;26.08;;;;;;;18.69;69.48;99352.34;4830419;28;120072;-74
2021/10/20 09:23:21;;;;;;;48.35;26.42;;;;;;;18.72;69.66;99347.75;4824797;28;119573;-74
2021/10/20 09:25:52;;;;;;;43.08;24.00;;;;;;;18.73;69.38;99347.22;4818886;28;119922;-74
2021/10/20 09:28:25;;;;;;;44.17;24.92;;;;;;;18.72;69.39;99329.06;4812886;28;119803;-74
2021/10/20 09:30:52;;;;;;;48.43;24.07;;;;;;;18.73;69.39;99325.00;4823516;28;120286;-74
2021/10/20 09:33:18;;;;;;;45.05;24.25;;;;;;;18.76;69.39;99332.25;4829094;28;120267;-74
2021/10/20 09:35:44;;;;;;;44.28;25.10;;;;;;;18.73;69.17;99313.88;4826265;28;119966;-74
2021/10/20 09:38:11;;;;;;;43.75;25.67;;;;;;;18.79;69.27;99319.31;4803801;29;120753;-74
2021/10/20 09:40:42;;;;;;;40.00;23.80;;;;;;;18.78;69.03;99315.78;4821147;28;120448;-74
2021/10/20 09:43:10;;;;;;;40.75;23.02;;;;;;;18.77;68.99;99308.00;4829895;29;119971;-74
2021/10/20 09:45:39;;;;;;;44.47;24.50;;;;;;;18.79;69.20;99313.75;4821774;28;119845;-74
2021/10/20 09:48:21;;;;;;;41.20;24.55;;;;;;;18.80;69.44;99323.56;4822498;28;120812;-74
2021/10/20 09:51:11;;;;;;;46.60;25.17;;;;;;;18.77;69.24;99308.75;4822403;28;120052;-74
2021/10/20 09:53:42;;;;;;;44.05;23.92;;;;;;;18.75;69.32;99294.66;4798209;28;121105;-74
2021/10/20 09:56:30;;;;;;;38.22;22.30;;;;;;;18.74;69.64;99293.16;4825034;28;120154;-74
2021/10/20 09:58:57;;;;;;;39.83;23.63;;;;;;;18.73;69.57;99296.47;4828530;28;120074;-75
2021/10/20 10:01:26;;;;;;;41.53;23.55;;;;;;;18.72;69.92;99278.31;4805248;29;120388;-73
2021/10/20 10:03:53;;;;;;;40.88;23.23;;;;;;;18.76;69.64;99290.59;4828745;28;120157;-74
2021/10/20 10:06:21;;;;;;;39.53;22.02;;;;;;;18.76;69.65;99285.03;4820042;28;119501;-73
2021/10/20 10:08:47;;;;;;;41.20;23.05;;;;;;;18.78;69.76;99285.22;4803929;29;119882;-74
2021/10/20 10:11:13;;;;;;;39.15;21.25;;;;;;;18.79;69.74;99278.41;4822689;28;121124;-74
2021/10/20 10:13:50;;;;;;;33.95;20.48;;;;;;;18.79;69.60;99278.41;4818354;28;120419;-74
2021/10/20 10:16:20;;;;;;;33.60;18.88;;;;;;;18.77;69.54;99280.97;4815515;28;119991;-73
2021/10/20 10:18:47;;;;;;;31.48;19.67;;;;;;;18.80;69.44;99291.00;4822781;28;119804;-73
2021/10/20 10:21:40;;;;;;;35.45;20.42;;;;;;;18.80;69.57;99282.66;4825117;28;121764;-74
2021/10/20 10:24:12;;;;;;;32.55;19.88;;;;;;;18.80;69.83;99273.56;4817568;28;123263;-73
2021/10/20 10:27:00;;;;;;;33.05;19.15;;;;;;;18.80;69.46;99279.88;4816627;28;119972;-73
2021/10/20 10:29:30;;;;;;;36.58;19.75;;;;;;;18.81;69.66;99286.94;4825965;28;119764;-74
2021/10/20 10:32:05;;;;;;;34.92;20.02;;;;;;;18.86;69.56;99288.81;4817700;28;119804;-73
2021/10/20 10:34:30;;;;;;;33.25;18.48;;;;;;;18.87;69.33;99295.88;4821392;28;120161;-72
2021/10/20 10:36:59;;;;;;;37.35;19.80;;;;;;;18.88;69.55;99291.81;4826149;28;120687;-73
2021/10/20 10:39:32;;;;;;;39.08;20.80;;;;;;;18.89;69.79;99273.84;4797471;28;120649;-73
2021/10/20 10:42:03;;;;;;;32.23;18.43;;;;;;;18.89;69.73;99309.97;4830545;28;119892;-73
2021/10/20 10:44:50;;;;;;;39.90;19.17;;;;;;;18.91;70.17;99293.50;4825531;28;119884;-73
2021/10/20 10:47:27;;;;;;;31.70;15.85;;;;;;;18.93;69.80;99290.19;4825262;28;119646;-73
2021/10/20 10:49:55;;;;;;;33.10;16.88;;;;;;;18.95;69.97;99296.69;4822920;28;120648;-73
2021/10/20 10:52:34;;;;;;;33.90;16.15;;;;;;;18.98;69.76;99301.19;4826999;28;119697;-73
2021/10/20 10:55:19;;;;;;;34.88;16.00;;;;;;;18.96;70.18;99300.97;4818511;29;120162;-73
2021/10/20 10:57:54;;;;;;;24.77;14.32;;;;;;;18.99;70.20;99301.91;4819426;29;120052;-73
2021/10/20 11:00:19;;;;;;;27.98;14.57;;;;;;;19.00;70.17;99293.03;4805678;28;119437;-73
2021/10/20 11:02:54;;;;;;;28.15;14.50;;;;;;;19.04;70.40;99298.25;4824159;28;120470;-73
2021/10/20 11:05:33;;;;;;;23.75;13.25;;;;;;;19.04;69.91;99286.41;4827427;28;120136;-72
2021/10/20 11:08:03;;;;;;;30.30;14.05;;;;;;;19.08;69.96;99295.13;4800615;28;121434;-74